Cloudland, Georgia
Current Conditions -  °F | °C
As of 2:55 AM on Sunday 26 Oct 2014 (Local Time) from K4A9 Reporting Station
Haze Haze  
Wind Chill: 11°   Ceiling: Unl
Heat Index: 11°   Visibility: 4mi
Dew Point:   Wind: 0mph
Humidity: 88%   Direction: NA
Pressure: 30.04"   Gusts: NA
Location:  34.6147°N, 85.4647°W
Report Text: K4A9 260655Z AUTO 00000KT 4SM BR CLR 11/09 A3004 RMK AO2
Loading
Personal Weather Stations






























Interactive Weather Map
Tropical Storm Tracking
New forecast layout! Learn more

10-Day Weather Forecast

Advertisements
Track Severe Weather on mobile